createdAt,value
2022-10-18T00:01:05.917Z,12.60
2022-10-18T00:04:16.261Z,12.80
2022-10-18T00:07:20.028Z,12.80
2022-10-18T00:10:27.913Z,11.00
2022-10-18T00:13:34.267Z,11.70
2022-10-18T00:16:37.744Z,12.70
2022-10-18T00:19:42.760Z,15.30
2022-10-18T00:22:46.353Z,12.20
2022-10-18T00:25:49.116Z,13.10
2022-10-18T00:28:54.992Z,13.00
2022-10-18T00:31:57.988Z,12.30
2022-10-18T00:35:00.716Z,11.50
2022-10-18T00:38:03.541Z,13.30
2022-10-18T00:41:08.618Z,13.10
2022-10-18T00:44:11.296Z,12.60
2022-10-18T00:47:18.163Z,10.80
2022-10-18T00:50:22.243Z,11.90
2022-10-18T00:53:25.098Z,12.00
2022-10-18T00:56:29.899Z,11.70
2022-10-18T00:59:34.052Z,13.80
2022-10-18T01:02:38.625Z,12.70
2022-10-18T01:05:45.850Z,10.60
2022-10-18T01:09:24.283Z,12.40
2022-10-18T01:12:58.540Z,17.40
2022-10-18T01:16:30.907Z,11.90
2022-10-18T01:19:58.262Z,12.10
2022-10-18T01:23:11.069Z,10.60
2022-10-18T01:26:45.499Z,10.90
2022-10-18T01:30:03.640Z,11.90
2022-10-18T01:33:20.422Z,13.40
2022-10-18T01:36:29.159Z,11.70
2022-10-18T01:39:37.515Z,10.70
2022-10-18T01:45:43.505Z,11.80
2022-10-18T01:48:47.137Z,12.00
2022-10-18T01:51:49.977Z,14.00
2022-10-18T01:54:55.026Z,13.90
2022-10-18T01:58:10.723Z,11.90
2022-10-18T02:01:31.139Z,12.70
2022-10-18T02:04:40.773Z,15.10
2022-10-18T02:08:24.215Z,12.10
2022-10-18T02:11:30.821Z,13.40
2022-10-18T02:14:34.928Z,10.70
2022-10-18T02:17:40.347Z,14.60
2022-10-18T02:20:43.333Z,13.90
2022-10-18T02:23:47.797Z,12.70
2022-10-18T02:26:50.723Z,12.70
2022-10-18T02:29:54.121Z,15.90
2022-10-18T02:33:04.613Z,11.40
2022-10-18T02:36:17.236Z,12.00
2022-10-18T02:39:25.679Z,14.00
2022-10-18T02:45:37.007Z,13.00
2022-10-18T02:48:39.835Z,15.00
2022-10-18T02:51:42.572Z,13.50
2022-10-18T02:54:45.289Z,14.00
2022-10-18T02:57:48.378Z,14.90
2022-10-18T03:00:51.267Z,13.40
2022-10-18T03:03:54.051Z,11.20
2022-10-18T03:06:56.738Z,11.60
2022-10-18T03:09:59.507Z,13.40
2022-10-18T03:13:02.203Z,13.00
2022-10-18T03:16:05.450Z,11.30
2022-10-18T03:19:08.405Z,11.40
2022-10-18T03:22:11.164Z,11.20
2022-10-18T03:25:14.080Z,14.20
2022-10-18T03:28:16.943Z,13.90
2022-10-18T03:31:20.497Z,13.00
2022-10-18T03:34:26.274Z,12.70
2022-10-18T03:37:29.142Z,13.50
2022-10-18T03:40:32.531Z,13.60
2022-10-18T03:43:35.599Z,13.60
2022-10-18T03:46:38.576Z,11.60
2022-10-18T03:49:41.654Z,12.50
2022-10-18T03:52:44.515Z,13.70
2022-10-18T03:55:52.927Z,12.70
2022-10-18T04:02:00.298Z,11.90
2022-10-18T04:05:03.789Z,9.70
2022-10-18T04:08:06.666Z,16.30
2022-10-18T04:11:11.091Z,14.70
2022-10-18T04:14:14.035Z,13.20
2022-10-18T04:17:16.996Z,12.00
2022-10-18T04:20:19.964Z,12.50
2022-10-18T04:23:22.838Z,12.80
2022-10-18T04:26:25.967Z,15.10
2022-10-18T04:29:28.880Z,15.40
2022-10-18T04:32:31.867Z,11.60
2022-10-18T04:35:34.824Z,11.20
2022-10-18T04:38:37.694Z,13.50
2022-10-18T04:41:40.547Z,13.40
2022-10-18T04:44:43.436Z,12.40
2022-10-18T04:47:46.304Z,12.40
2022-10-18T04:50:50.197Z,9.60
2022-10-18T04:53:53.174Z,12.80
2022-10-18T04:56:58.020Z,13.10
2022-10-18T05:00:01.163Z,14.10
2022-10-18T05:03:04.341Z,9.90
2022-10-18T05:06:07.312Z,11.00
2022-10-18T05:09:10.488Z,13.20
2022-10-18T05:12:13.358Z,12.00
2022-10-18T05:15:16.333Z,12.40
2022-10-18T05:18:23.583Z,10.60
2022-10-18T05:21:26.674Z,12.60
2022-10-18T05:24:29.446Z,14.30
2022-10-18T05:27:32.415Z,13.60
2022-10-18T05:30:39.321Z,13.00
2022-10-18T05:33:42.350Z,10.90
2022-10-18T05:36:45.323Z,11.40
2022-10-18T05:39:50.255Z,13.80
2022-10-18T05:42:53.390Z,14.20
2022-10-18T05:45:56.490Z,12.80
2022-10-18T05:48:59.677Z,9.70
2022-10-18T05:52:02.742Z,14.80
2022-10-18T05:55:06.123Z,13.90
2022-10-18T05:58:09.543Z,12.80
2022-10-18T06:01:13.850Z,11.90
2022-10-18T06:04:18.061Z,12.40
2022-10-18T06:07:20.990Z,12.90
2022-10-18T06:10:24.055Z,13.20
2022-10-18T06:13:28.278Z,16.70
2022-10-18T06:16:33.314Z,11.70
2022-10-18T06:19:36.243Z,15.50
2022-10-18T06:22:39.118Z,16.20
2022-10-18T06:25:41.996Z,13.20
2022-10-18T06:28:45.114Z,12.90
2022-10-18T06:31:48.136Z,12.80
2022-10-18T06:34:50.953Z,10.10
2022-10-18T06:37:53.774Z,13.90
2022-10-18T06:40:58.224Z,14.20
2022-10-18T06:44:07.390Z,13.20
2022-10-18T06:47:10.568Z,10.20
2022-10-18T06:50:13.645Z,10.70
2022-10-18T06:53:16.821Z,16.50
2022-10-18T06:56:25.943Z,13.60
2022-10-18T06:59:31.230Z,14.60
2022-10-18T07:02:34.727Z,10.00
2022-10-18T07:05:38.125Z,11.20
2022-10-18T07:08:41.504Z,11.40
2022-10-18T07:11:44.373Z,13.00
2022-10-18T07:14:47.355Z,13.90
2022-10-18T07:17:50.732Z,11.50
2022-10-18T07:20:53.596Z,10.80
2022-10-18T07:23:57.187Z,12.00
2022-10-18T07:27:00.053Z,12.40
2022-10-18T07:30:07.373Z,12.20
2022-10-18T07:33:10.294Z,11.00
2022-10-18T07:36:13.676Z,11.10
2022-10-18T07:39:16.549Z,11.70
2022-10-18T07:42:19.623Z,13.30
2022-10-18T07:45:22.592Z,11.60
2022-10-18T07:48:26.417Z,9.20
2022-10-18T07:51:31.198Z,10.10
2022-10-18T07:54:34.070Z,15.00
2022-10-18T07:57:36.941Z,13.40
2022-10-18T08:00:40.118Z,10.10
2022-10-18T08:03:43.911Z,10.90
2022-10-18T08:06:48.212Z,17.40
2022-10-18T08:09:51.077Z,13.10
2022-10-18T08:12:54.916Z,11.20
2022-10-18T08:16:06.065Z,11.20
2022-10-18T08:19:09.001Z,18.30
2022-10-18T08:22:11.978Z,12.20
2022-10-18T08:25:16.560Z,10.20
2022-10-18T08:28:20.679Z,11.00
2022-10-18T08:31:24.579Z,12.20
2022-10-18T08:34:27.483Z,13.50
2022-10-18T08:37:30.747Z,10.10
2022-10-18T08:40:34.928Z,12.70
2022-10-18T08:43:45.701Z,12.90
2022-10-18T08:46:56.342Z,12.00
2022-10-18T08:50:08.954Z,12.40
2022-10-18T08:53:23.466Z,10.20
2022-10-18T08:56:27.678Z,11.30
2022-10-18T08:59:41.385Z,12.70
2022-10-18T09:02:56.870Z,10.30
2022-10-18T09:06:19.836Z,10.70
2022-10-18T09:09:41.754Z,15.10
2022-10-18T09:16:15.943Z,12.00
2022-10-18T09:19:34.266Z,11.10
2022-10-18T09:22:47.674Z,14.00
2022-10-18T09:26:00.129Z,11.20
2022-10-18T09:29:28.310Z,11.90
2022-10-18T09:32:31.505Z,9.40
2022-10-18T09:36:02.105Z,11.80
2022-10-18T09:39:24.107Z,11.20
2022-10-18T09:42:40.544Z,12.50
2022-10-18T09:45:46.011Z,10.60
2022-10-18T09:48:56.549Z,11.30
2022-10-18T09:52:04.068Z,12.00
2022-10-18T09:55:16.411Z,14.50
2022-10-18T09:58:21.433Z,11.90
2022-10-18T10:01:30.643Z,16.00
2022-10-18T10:04:33.513Z,13.30
2022-10-18T10:07:43.351Z,11.50
2022-10-18T10:10:47.849Z,16.00
2022-10-18T10:13:50.747Z,11.40
2022-10-18T10:17:00.346Z,15.20
2022-10-18T10:20:20.523Z,14.30
2022-10-18T10:23:28.522Z,12.80
2022-10-18T10:26:38.995Z,12.50
2022-10-18T10:29:56.132Z,13.10
2022-10-18T10:32:59.416Z,11.50
2022-10-18T10:36:07.357Z,9.30
2022-10-18T10:39:19.497Z,8.40
2022-10-18T10:42:22.556Z,6.70
2022-10-18T10:45:29.009Z,7.90
2022-10-18T10:48:39.571Z,5.90
2022-10-18T10:51:43.813Z,6.40
2022-10-18T10:54:51.350Z,8.60
2022-10-18T10:57:56.653Z,8.70
2022-10-18T11:01:18.354Z,6.90
2022-10-18T11:04:30.870Z,6.80
2022-10-18T11:07:41.159Z,6.70
2022-10-18T11:11:19.381Z,7.50
2022-10-18T11:14:29.915Z,6.20
2022-10-18T11:17:51.770Z,5.40
2022-10-18T11:21:09.068Z,3.80
2022-10-18T11:24:16.783Z,4.60
2022-10-18T11:27:33.685Z,4.50
2022-10-18T11:30:49.745Z,3.20
2022-10-18T11:34:15.947Z,2.10
2022-10-18T11:37:40.494Z,3.00
2022-10-18T11:41:23.191Z,2.00
2022-10-18T11:44:37.522Z,2.00
2022-10-18T11:47:56.560Z,1.70
2022-10-18T11:54:23.996Z,1.10
2022-10-18T11:57:42.114Z,1.10
2022-10-18T12:00:49.430Z,1.40
2022-10-18T12:04:18.151Z,0.50
2022-10-18T12:07:27.731Z,1.10
2022-10-18T12:10:46.055Z,0.60
2022-10-18T12:14:01.231Z,0.40
2022-10-18T12:17:40.791Z,0.50
2022-10-18T12:21:05.519Z,0.70
2022-10-18T12:24:16.338Z,0.60
2022-10-18T12:27:23.637Z,0.80
2022-10-18T12:30:55.877Z,0.70
2022-10-18T12:34:04.678Z,0.70
2022-10-18T12:37:26.994Z,1.20
2022-10-18T12:40:44.054Z,2.50
2022-10-18T12:43:57.311Z,0.50
2022-10-18T12:47:03.297Z,0.40
2022-10-18T12:50:25.255Z,0.60
2022-10-18T12:53:29.435Z,0.80
2022-10-18T12:56:42.547Z,0.80
2022-10-18T12:59:45.410Z,1.00
2022-10-18T13:03:31.261Z,0.90
2022-10-18T13:07:03.611Z,1.00
2022-10-18T13:10:13.125Z,1.10
2022-10-18T13:13:39.054Z,1.00
2022-10-18T13:16:49.466Z,1.00
2022-10-18T13:20:20.438Z,0.90
2022-10-18T13:23:41.768Z,1.10
2022-10-18T13:27:24.076Z,0.80
2022-10-18T13:30:32.752Z,1.60
2022-10-18T13:33:36.831Z,1.40
2022-10-18T13:36:40.321Z,3.30
2022-10-18T13:39:43.493Z,1.70
2022-10-18T13:42:46.362Z,1.50
2022-10-18T13:45:56.196Z,1.50
2022-10-18T13:49:17.689Z,1.20
2022-10-18T13:52:35.721Z,2.10
2022-10-18T13:56:16.138Z,1.90
2022-10-18T13:59:44.177Z,1.50
2022-10-18T14:03:26.967Z,1.40
2022-10-18T14:06:44.575Z,1.60
2022-10-18T14:09:56.930Z,0.90
2022-10-18T14:13:04.515Z,1.10
2022-10-18T14:16:32.043Z,1.30
2022-10-18T14:19:44.337Z,1.50
2022-10-18T14:23:01.748Z,1.40
2022-10-18T14:26:16.711Z,1.10
2022-10-18T14:29:22.995Z,1.00
2022-10-18T14:32:32.341Z,0.90
2022-10-18T14:35:36.045Z,1.20
2022-10-18T14:38:56.928Z,1.70
2022-10-18T14:41:59.812Z,1.20
2022-10-18T14:45:03.212Z,1.20
2022-10-18T14:48:27.330Z,0.80
2022-10-18T14:51:35.377Z,2.30
2022-10-18T14:54:39.458Z,1.00
2022-10-18T14:57:43.304Z,1.10
2022-10-18T15:00:48.538Z,1.10
2022-10-18T15:03:56.821Z,0.90
2022-10-18T15:07:15.907Z,1.40
2022-10-18T15:10:34.284Z,1.30
2022-10-18T15:13:47.607Z,0.80
2022-10-18T15:16:59.264Z,1.50
2022-10-18T15:20:26.696Z,1.50
2022-10-18T15:23:31.511Z,1.00
2022-10-18T15:26:34.521Z,1.00
2022-10-18T15:29:38.067Z,0.90
2022-10-18T15:32:49.216Z,1.80
2022-10-18T15:35:55.070Z,2.40
2022-10-18T15:39:19.978Z,1.90
2022-10-18T15:42:38.112Z,3.10
2022-10-18T15:49:19.198Z,2.50
2022-10-18T15:52:21.970Z,2.00
2022-10-18T15:55:30.668Z,2.00
2022-10-18T15:58:46.775Z,1.90
2022-10-18T16:01:50.664Z,1.60
2022-10-18T16:04:53.918Z,2.30
2022-10-18T16:07:56.989Z,2.30
2022-10-18T16:11:00.176Z,2.40
2022-10-18T16:14:03.135Z,3.20
2022-10-18T16:17:07.058Z,2.00
2022-10-18T16:20:22.481Z,1.90
2022-10-18T16:23:29.567Z,2.10
2022-10-18T16:26:33.563Z,2.10
2022-10-18T16:29:36.415Z,1.70
2022-10-18T16:32:40.721Z,1.80
2022-10-18T16:35:43.591Z,3.30
2022-10-18T16:38:51.780Z,1.70
2022-10-18T16:41:54.857Z,1.70
2022-10-18T16:44:58.951Z,1.20
2022-10-18T16:48:02.031Z,1.20
2022-10-18T16:51:04.999Z,1.30
2022-10-18T16:54:08.381Z,1.10
2022-10-18T16:57:12.894Z,1.30
2022-10-18T17:00:19.565Z,0.80
2022-10-18T17:03:22.618Z,2.00
2022-10-18T17:06:29.488Z,1.10
2022-10-18T17:09:35.116Z,1.60
2022-10-18T17:12:37.983Z,1.20
2022-10-18T17:15:43.778Z,0.80
2022-10-18T17:18:47.137Z,0.80
2022-10-18T17:21:50.688Z,1.20
2022-10-18T17:24:53.433Z,1.60
2022-10-18T17:27:56.322Z,1.30
2022-10-18T17:30:59.202Z,3.10
2022-10-18T17:34:02.472Z,2.90
2022-10-18T17:37:06.060Z,2.50
2022-10-18T17:40:10.681Z,1.30
2022-10-18T17:43:14.770Z,1.50
2022-10-18T17:46:19.670Z,2.20
2022-10-18T17:49:22.552Z,1.20
2022-10-18T17:52:25.524Z,1.30
2022-10-18T17:55:30.339Z,1.90
2022-10-18T17:58:33.621Z,1.20
2022-10-18T18:01:37.918Z,2.90
2022-10-18T18:04:41.775Z,1.40
2022-10-18T18:07:44.889Z,1.60
2022-10-18T18:13:56.586Z,1.70
2022-10-18T18:17:01.583Z,1.70
2022-10-18T18:20:05.481Z,1.70
2022-10-18T18:23:08.454Z,2.10
2022-10-18T18:26:12.242Z,1.80
2022-10-18T18:29:15.118Z,2.80
2022-10-18T18:32:18.082Z,2.40
2022-10-18T18:35:21.058Z,3.40
2022-10-18T18:38:26.692Z,2.40
2022-10-18T18:41:29.763Z,2.10
2022-10-18T18:44:34.175Z,2.60
2022-10-18T18:47:38.707Z,4.70
2022-10-18T18:50:50.250Z,2.60
2022-10-18T18:53:53.334Z,2.20
2022-10-18T18:56:56.185Z,2.20
2022-10-18T18:59:59.060Z,2.30
2022-10-18T19:29:40.584Z,4.00
2022-10-18T19:32:44.148Z,3.50
2022-10-18T19:35:46.937Z,3.50
2022-10-18T19:38:50.024Z,3.90
2022-10-18T19:42:26.150Z,5.30
2022-10-18T19:45:30.339Z,4.40
2022-10-18T19:48:33.186Z,4.10
2022-10-18T19:51:38.035Z,3.80
2022-10-18T19:54:41.034Z,4.60
2022-10-18T19:57:43.899Z,5.60
2022-10-18T20:00:52.675Z,5.10
2022-10-18T20:03:56.601Z,4.70
2022-10-18T20:06:59.526Z,4.80
2022-10-18T20:10:03.606Z,4.60
2022-10-18T20:13:06.611Z,8.30
2022-10-18T20:16:11.627Z,6.60
2022-10-18T20:19:14.604Z,9.90
2022-10-18T20:22:18.494Z,5.50
2022-10-18T20:25:22.256Z,6.60
2022-10-18T20:28:27.489Z,6.90
2022-10-18T20:31:34.679Z,7.90
2022-10-18T20:34:37.649Z,7.30
2022-10-18T20:37:40.625Z,11.80
2022-10-18T20:40:43.718Z,11.40
2022-10-18T20:43:58.643Z,9.60
2022-10-18T20:47:01.511Z,8.70
2022-10-18T20:50:04.898Z,8.40
2022-10-18T20:53:07.761Z,9.30
2022-10-18T20:56:39.007Z,8.70
2022-10-18T20:59:42.168Z,7.50
2022-10-18T21:02:47.151Z,8.60
2022-10-18T21:05:51.057Z,8.50
2022-10-18T21:09:02.148Z,7.60
2022-10-18T21:12:05.530Z,7.30
2022-10-18T21:15:09.197Z,7.90
2022-10-18T21:18:12.065Z,9.30
2022-10-18T21:21:21.384Z,8.80
2022-10-18T21:24:26.397Z,7.80
2022-10-18T21:27:29.886Z,8.10
2022-10-18T21:30:32.855Z,8.70
2022-10-18T21:33:35.732Z,8.40
2022-10-18T21:36:40.436Z,7.90
2022-10-18T21:39:43.530Z,8.60
2022-10-18T21:42:46.586Z,8.20
2022-10-18T21:45:49.461Z,10.30
2022-10-18T21:48:54.387Z,12.50
2022-10-18T21:51:58.580Z,7.70
2022-10-18T21:55:01.955Z,8.20
2022-10-18T21:58:04.928Z,7.70
2022-10-18T22:01:09.998Z,9.00
2022-10-18T22:04:24.446Z,8.50
2022-10-18T22:07:28.168Z,7.30
2022-10-18T22:10:32.388Z,7.90
2022-10-18T22:13:35.650Z,6.90
2022-10-18T22:16:38.727Z,7.50
2022-10-18T22:19:43.742Z,8.30
2022-10-18T22:22:47.625Z,8.60
2022-10-18T22:25:51.428Z,7.70
2022-10-18T22:28:56.029Z,8.70
2022-10-18T22:31:59.622Z,9.10
2022-10-18T22:35:02.390Z,8.80
2022-10-18T22:38:05.262Z,7.90
2022-10-18T22:41:11.464Z,7.00
2022-10-18T22:44:15.409Z,8.80
2022-10-18T22:47:18.384Z,7.70
2022-10-18T22:50:21.348Z,7.70
2022-10-18T22:53:24.421Z,6.60
2022-10-18T22:56:28.723Z,7.50
2022-10-18T22:59:31.596Z,8.70
2022-10-18T23:02:34.899Z,8.60
2022-10-18T23:05:42.760Z,8.70
2022-10-18T23:08:45.727Z,8.10
2022-10-18T23:11:51.161Z,8.40
2022-10-18T23:14:54.032Z,9.00
2022-10-18T23:18:00.171Z,9.30
2022-10-18T23:21:10.847Z,7.40
2022-10-18T23:24:13.798Z,8.70
2022-10-18T23:27:16.660Z,8.90
2022-10-18T23:30:20.052Z,9.40
2022-10-18T23:33:23.022Z,10.90
2022-10-18T23:36:26.608Z,10.00
2022-10-18T23:39:29.473Z,9.00
2022-10-18T23:42:32.340Z,8.30
2022-10-18T23:45:37.794Z,9.00
2022-10-18T23:48:40.844Z,7.60
2022-10-18T23:51:43.714Z,7.70
2022-10-18T23:54:46.813Z,7.40
2022-10-18T23:57:49.657Z,7.30
